»·PEaware :: XOJ539 KTPA-3J7

XOJ539 :: KTPA-3J7

FLIGHT INFORMATION

Flight Status: Arrived
Operator:
XOJET
More flights by this operator :: More flights under this callsign
Pilot: Charles S. (11412)
Aircraft: BOMBARDIER BD-100 CHALLENGER 300
(CL30)
More flights by this aircraft type
Origin: KTPA Tampa Intl
United States
Destination: 3J7 Greene Co Regl
United States
More flights between these airports :: More routes between these airports
Route: BAYPO8 CAMJO BEYLO
File this flight plan on PilotEdge
Remarks:
Altitude:
(Current/Filed)
41,000ft
Speed:
(Current/Filed)
270kts
Departed: 22-Sep-18 06:24 PM
Arrived: 22-Sep-18 07:23 PM
Distance/Time
Traveled:
339nm/0:59
Distance/Time
To Go:
Arrived

Flight Plot

Page will automatically refresh every two minutes.

Flight plan parsing failed; only flown route is shown


Map Options




Map Legend


Flown Route
Filed Route
Departure Airport
Arrival Airport
Navaid (VOR, NDB)
Fix

Horizontal Profiles

Position Reports

Time Latitude Longitude Heading Altitude Ground
Speed
22-Sep-18 18:23 27.966236 -82.526711 272 19ft 5kts
22-Sep-18 18:24 27.966003 -82.526949 181 18ft 14kts
22-Sep-18 18:25 27.965167 -82.528970 2 15ft 17kts
22-Sep-18 18:26 28.005509 -82.531301 347 2424ft 182kts
22-Sep-18 18:27 28.061654 -82.544620 348 5770ft 233kts
22-Sep-18 18:28 28.124854 -82.559087 349 8723ft 243kts
22-Sep-18 18:29 28.198183 -82.574187 358 11691ft 338kts
22-Sep-18 18:30 28.296388 -82.578086 358 14704ft 365kts
22-Sep-18 18:31 28.397567 -82.581232 359 17652ft 381kts
22-Sep-18 18:32 28.503493 -82.584001 358 20610ft 397kts
22-Sep-18 18:33 28.613600 -82.586813 358 23557ft 415kts
22-Sep-18 18:34 28.729709 -82.596959 353 26542ft 428kts
22-Sep-18 18:35 28.849811 -82.613334 352 28661ft 449kts
22-Sep-18 18:36 28.974398 -82.630792 352 30664ft 460kts
22-Sep-18 18:37 29.099738 -82.648390 353 32591ft 468kts
22-Sep-18 18:38 29.229288 -82.666606 353 34388ft 474kts
22-Sep-18 18:39 29.359539 -82.684949 353 36176ft 475kts
22-Sep-18 18:40 29.488800 -82.692242 0 37936ft 474kts
22-Sep-18 18:41 29.619250 -82.691846 0 39710ft 472kts
22-Sep-18 18:42 29.748327 -82.691113 0 41095ft 477kts
22-Sep-18 18:43 29.879373 -82.690283 0 41104ft 474kts
22-Sep-18 18:44 30.009546 -82.689466 0 41110ft 473kts
22-Sep-18 18:45 30.138428 -82.688646 0 41108ft 474kts
22-Sep-18 18:46 30.269159 -82.687826 0 41109ft 474kts
22-Sep-18 18:47 30.399520 -82.687007 0 41109ft 474kts
22-Sep-18 18:48 30.529785 -82.690240 354 41112ft 474kts
22-Sep-18 18:49 30.659724 -82.707828 353 41118ft 474kts
22-Sep-18 18:50 30.789720 -82.726119 353 41128ft 473kts
22-Sep-18 18:51 30.916365 -82.744105 353 41127ft 460kts
22-Sep-18 18:52 31.042919 -82.762141 353 41128ft 462kts
22-Sep-18 18:53 31.164232 -82.779485 353 41127ft 462kts
22-Sep-18 18:54 31.290063 -82.797520 353 41131ft 462kts
22-Sep-18 18:55 31.412192 -82.815086 353 41132ft 441kts
22-Sep-18 18:56 31.532088 -82.832354 353 39238ft 443kts
22-Sep-18 18:57 31.651888 -82.849668 353 37110ft 439kts
22-Sep-18 18:58 31.770917 -82.866890 353 34995ft 429kts
22-Sep-18 18:59 31.885464 -82.883518 354 32973ft 417kts
22-Sep-18 19:00 31.997098 -82.899765 354 31021ft 405kts
22-Sep-18 19:01 32.104746 -82.915464 354 29153ft 392kts
22-Sep-18 19:02 32.208895 -82.930689 354 27343ft 368kts
22-Sep-18 19:03 32.308502 -82.945300 354 25643ft 359kts
22-Sep-18 19:04 32.403905 -82.959306 354 24028ft 351kts
22-Sep-18 19:05 32.498998 -82.973296 354 22428ft 343kts
22-Sep-18 19:06 32.591352 -82.986917 353 20884ft 335kts
22-Sep-18 19:07 32.682194 -83.000342 353 19375ft 328kts
22-Sep-18 19:08 32.770674 -83.013444 353 17914ft 321kts
22-Sep-18 19:09 32.856707 -83.026210 353 16500ft 314kts
22-Sep-18 19:10 32.941980 -83.038890 353 15104ft 307kts
22-Sep-18 19:11 33.025295 -83.051310 353 13743ft 300kts
22-Sep-18 19:12 33.106800 -83.063542 354 12421ft 294kts
22-Sep-18 19:13 33.185703 -83.075317 354 11069ft 287kts
22-Sep-18 19:14 33.262039 -83.086738 354 9799ft 280kts
22-Sep-18 19:15 33.322112 -83.132656 308 8563ft 277kts
22-Sep-18 19:16 33.364456 -83.201600 306 7360ft 245kts
22-Sep-18 19:17 33.400312 -83.263216 305 5653ft 220kts
22-Sep-18 19:18 33.437073 -83.317520 332 4195ft 213kts
22-Sep-18 19:19 33.488731 -83.347718 353 3000ft 209kts
22-Sep-18 19:20 33.523141 -83.304922 59 2352ft 177kts
22-Sep-18 19:21 33.547127 -83.255145 56 2329ft 177kts
22-Sep-18 19:22 33.569281 -83.208793 64 1819ft 145kts
22-Sep-18 19:23 33.585667 -83.168515 63 1019ft 128kts
22-Sep-18 19:24 33.599059 -83.135589 63 668ft 46kts
22-Sep-18 19:25 33.599597 -83.132705 244 664ft 24kts
22-Sep-18 19:26 33.597205 -83.138574 244 678ft 0kts

Navigation Log

Ident Type
Flight plan parsing failed, navigation log unavailable